createdAt,value
2023-10-19T03:10:24.835Z,15.70
2023-10-19T03:12:54.098Z,15.80
2023-10-19T03:15:22.658Z,15.80
2023-10-19T03:17:50.880Z,15.80
2023-10-19T03:20:19.164Z,15.80
2023-10-19T03:22:47.720Z,15.70
2023-10-19T03:25:32.708Z,15.70
2023-10-19T03:28:07.373Z,15.60
2023-10-19T03:30:41.213Z,15.60
2023-10-19T03:33:10.316Z,15.60
2023-10-19T03:35:42.511Z,15.60
2023-10-19T03:38:15.872Z,15.50
2023-10-19T03:40:48.035Z,15.50
2023-10-19T03:43:19.533Z,15.50
2023-10-19T03:45:52.503Z,15.50
2023-10-19T03:48:28.016Z,15.50
2023-10-19T03:50:57.061Z,15.50
2023-10-19T03:53:25.633Z,15.50
2023-10-19T03:55:58.277Z,15.50
2023-10-19T03:58:30.160Z,15.60
2023-10-19T04:01:06.124Z,15.60
2023-10-19T04:03:36.136Z,15.60
2023-10-19T04:06:05.936Z,15.60
2023-10-19T04:08:38.530Z,15.50
2023-10-19T04:11:22.787Z,15.60
2023-10-19T04:13:55.185Z,15.60
2023-10-19T04:16:24.755Z,15.60
2023-10-19T04:18:53.028Z,15.60
2023-10-19T04:21:21.191Z,15.60
2023-10-19T04:23:49.287Z,15.60
2023-10-19T04:26:19.789Z,15.60
2023-10-19T04:28:50.865Z,15.60
2023-10-19T04:31:20.449Z,15.50
2023-10-19T04:33:51.614Z,15.60
2023-10-19T04:36:22.973Z,15.60
2023-10-19T04:38:51.157Z,15.60
2023-10-19T04:41:19.271Z,15.60
2023-10-19T04:43:51.633Z,15.60
2023-10-19T04:46:21.020Z,15.60
2023-10-19T04:48:50.811Z,15.60
2023-10-19T04:51:19.506Z,15.60
2023-10-19T04:53:47.640Z,15.60
2023-10-19T04:56:15.727Z,15.60
2023-10-19T04:58:44.002Z,15.60
2023-10-19T05:01:13.311Z,15.60
2023-10-19T05:03:41.657Z,15.60
2023-10-19T05:06:11.705Z,15.60
2023-10-19T05:08:40.031Z,15.60
2023-10-19T05:11:08.274Z,15.60
2023-10-19T05:13:37.744Z,15.60
2023-10-19T05:16:06.260Z,15.60
2023-10-19T05:18:35.211Z,15.60
2023-10-19T05:21:03.343Z,15.60
2023-10-19T05:23:32.836Z,15.60
2023-10-19T05:26:04.671Z,15.60
2023-10-19T05:28:33.185Z,15.60
2023-10-19T05:31:01.567Z,15.60
2023-10-19T05:33:30.891Z,15.60
2023-10-19T05:35:59.386Z,15.60
2023-10-19T05:38:28.328Z,15.60
2023-10-19T05:41:00.437Z,15.60
2023-10-19T05:43:29.331Z,15.60
2023-10-19T05:45:58.045Z,15.60
2023-10-19T05:48:26.337Z,15.60
2023-10-19T05:50:55.449Z,15.60
2023-10-19T05:53:24.293Z,15.60
2023-10-19T05:55:52.518Z,15.60
2023-10-19T05:58:22.432Z,15.60
2023-10-19T06:00:53.300Z,15.60
2023-10-19T06:03:21.569Z,15.60
2023-10-19T06:05:49.996Z,15.60
2023-10-19T06:08:18.224Z,15.60
2023-10-19T06:10:52.806Z,15.60
2023-10-19T06:13:23.185Z,15.60
2023-10-19T06:15:53.029Z,15.60
2023-10-19T07:50:43.675Z,17.10
2023-10-19T07:53:13.498Z,17.30
2023-10-19T07:55:42.210Z,17.30
2023-10-19T07:58:11.402Z,17.30
2023-10-19T08:00:39.973Z,17.40
2023-10-19T08:03:09.864Z,17.40
2023-10-19T08:05:39.700Z,17.40
2023-10-19T08:08:08.288Z,17.40
2023-10-19T08:10:37.976Z,17.40
2023-10-19T08:13:06.201Z,17.60
2023-10-19T08:15:34.339Z,17.80
2023-10-19T08:18:02.494Z,18.00
2023-10-19T08:20:33.043Z,17.90
2023-10-19T08:23:04.054Z,18.00
2023-10-19T08:28:05.128Z,18.90
2023-10-19T08:30:34.729Z,18.90
2023-10-19T08:33:03.022Z,18.70
2023-10-19T08:35:32.082Z,18.80
2023-10-19T08:38:00.325Z,18.80
2023-10-19T08:40:29.637Z,18.70
2023-10-19T08:42:58.022Z,18.80
2023-10-19T08:45:27.839Z,18.70
2023-10-19T08:47:58.835Z,18.90
2023-10-19T08:50:27.771Z,18.80
2023-10-19T08:52:57.315Z,19.00
2023-10-19T08:55:41.008Z,18.80
2023-10-19T08:58:13.817Z,19.00
2023-10-19T09:00:54.881Z,19.00
2023-10-19T09:03:23.658Z,19.00
2023-10-19T09:05:51.961Z,18.90
2023-10-19T09:08:23.366Z,18.80
2023-10-19T09:10:54.441Z,18.60
2023-10-19T09:13:24.157Z,18.70
2023-10-19T09:15:56.944Z,18.60
2023-10-19T09:18:29.347Z,18.60
2023-10-19T09:21:04.032Z,18.50
2023-10-19T09:23:32.975Z,18.40
2023-10-19T09:26:04.729Z,18.30
2023-10-19T09:28:35.003Z,18.20
2023-10-19T09:31:05.594Z,18.20
2023-10-19T09:33:36.211Z,18.20
2023-10-19T09:36:14.148Z,18.20
2023-10-19T09:38:46.107Z,18.30
2023-10-19T09:41:16.017Z,18.20
2023-10-19T09:43:46.117Z,18.10
2023-10-19T09:46:23.450Z,18.20
2023-10-19T09:48:52.803Z,18.20
2023-10-19T09:51:23.151Z,18.20
2023-10-19T09:53:59.772Z,18.20
2023-10-19T09:56:34.243Z,18.10
2023-10-19T09:59:07.582Z,18.10
2023-10-19T10:02:05.486Z,18.10
2023-10-19T10:04:37.555Z,18.10
2023-10-19T10:07:08.249Z,18.10
2023-10-19T10:09:41.318Z,18.10
2023-10-19T10:12:22.477Z,18.10
2023-10-19T10:15:04.083Z,18.00
2023-10-19T10:17:36.291Z,18.00
2023-10-19T10:20:35.298Z,17.90
2023-10-19T10:23:22.559Z,17.90
2023-10-19T10:25:54.992Z,17.90
2023-10-19T10:28:25.207Z,17.90
2023-10-19T10:31:21.765Z,17.90
2023-10-19T10:33:52.495Z,17.80
2023-10-19T10:36:22.521Z,17.90
2023-10-19T10:38:52.558Z,18.00
2023-10-19T10:41:26.269Z,18.10
2023-10-19T10:43:56.114Z,18.30
2023-10-19T10:46:26.409Z,18.40
2023-10-19T10:48:55.137Z,18.50
2023-10-19T10:51:25.746Z,18.60
2023-10-19T10:53:55.974Z,18.60
2023-10-19T10:56:26.031Z,18.60
2023-10-19T10:58:56.199Z,18.70
2023-10-19T11:01:32.066Z,18.60
2023-10-19T11:04:10.269Z,18.60
2023-10-19T11:06:56.718Z,18.60
2023-10-19T11:09:25.876Z,18.50
2023-10-19T11:11:55.067Z,18.50
2023-10-19T11:14:25.923Z,18.40
2023-10-19T11:16:54.334Z,18.30
2023-10-19T11:19:22.838Z,18.30
2023-10-19T11:22:00.518Z,18.30
2023-10-19T11:24:34.944Z,18.30
2023-10-19T11:27:03.641Z,18.20
2023-10-19T11:29:31.805Z,18.10
2023-10-19T11:32:01.114Z,18.00
2023-10-19T11:34:30.485Z,18.00
2023-10-19T11:37:00.747Z,17.90
2023-10-19T11:39:29.843Z,17.90
2023-10-19T11:41:58.729Z,17.90
2023-10-19T11:44:26.901Z,18.00
2023-10-19T11:46:55.124Z,18.10
2023-10-19T11:49:26.723Z,18.10
2023-10-19T11:51:55.234Z,18.10
2023-10-19T11:54:25.017Z,18.20
2023-10-19T11:56:54.244Z,18.20
2023-10-19T11:59:22.397Z,18.20
2023-10-19T12:01:50.516Z,18.10
2023-10-19T12:04:19.163Z,18.10
2023-10-19T12:06:48.615Z,18.10
2023-10-19T12:09:25.379Z,18.10
2023-10-19T12:11:56.098Z,18.10
2023-10-19T12:14:24.376Z,18.10
2023-10-19T12:16:52.666Z,18.00
2023-10-19T12:19:20.917Z,17.90
2023-10-19T12:21:50.840Z,17.90
2023-10-19T12:24:19.278Z,17.80
2023-10-19T12:26:47.647Z,17.70
2023-10-19T12:29:18.696Z,17.70
2023-10-19T12:31:48.012Z,17.60
2023-10-19T12:34:18.021Z,17.60
2023-10-19T12:36:48.009Z,17.60
2023-10-19T12:39:36.851Z,17.50
2023-10-19T12:42:05.765Z,17.50
2023-10-19T12:44:40.444Z,17.40
2023-10-19T12:47:11.523Z,17.40
2023-10-19T12:49:40.385Z,17.40
2023-10-19T12:52:09.520Z,17.40
2023-10-19T12:54:38.342Z,17.30
2023-10-19T12:57:08.457Z,17.40
2023-10-19T12:59:39.586Z,17.50
2023-10-19T13:02:09.886Z,17.60
2023-10-19T13:04:38.472Z,17.80
